createdAt,value
2023-04-17T00:00:18.057Z,49.6
2023-04-17T00:02:18.515Z,49.6
2023-04-17T00:04:17.884Z,49.2
2023-04-17T00:06:18.022Z,50.2
2023-04-17T00:08:17.760Z,49.2
2023-04-17T00:10:17.852Z,49.2
2023-04-17T00:12:17.759Z,48.4
2023-04-17T00:14:17.780Z,48.4
2023-04-17T00:16:18.415Z,48.4
2023-04-17T00:18:17.838Z,48.4
2023-04-17T00:20:17.874Z,48.4
2023-04-17T00:22:17.864Z,49
2023-04-17T00:24:17.913Z,48.2
2023-04-17T00:26:18.320Z,48.2
2023-04-17T00:28:18.090Z,47.3
2023-04-17T00:30:18.161Z,47.4
2023-04-17T00:32:17.920Z,47.4
2023-04-17T00:34:17.994Z,46.6
2023-04-17T00:36:18.082Z,47.6
2023-04-17T00:38:18.131Z,47
2023-04-17T00:40:18.607Z,47
2023-04-17T00:42:17.948Z,47.2
2023-04-17T00:44:17.999Z,47.3
2023-04-17T00:46:18.403Z,46.6
2023-04-17T00:48:19.752Z,46
2023-04-17T00:50:18.217Z,46.6
2023-04-17T00:52:27.252Z,45.9
2023-04-17T00:54:18.438Z,46.7
2023-04-17T00:56:18.326Z,45.6
2023-04-17T00:58:18.895Z,45.3
2023-04-17T01:00:18.210Z,44.7
2023-04-17T01:02:19.139Z,45.5
2023-04-17T01:04:18.392Z,45.2
2023-04-17T01:06:19.507Z,45.1
2023-04-17T01:08:18.645Z,45.1
2023-04-17T01:10:18.441Z,45.7
2023-04-17T01:12:20.107Z,45.1
2023-04-17T01:14:18.818Z,44.5
2023-04-17T01:16:19.717Z,45.2
2023-04-17T01:18:19.168Z,45.8
2023-04-17T01:20:18.464Z,45.3
2023-04-17T01:22:18.901Z,45.3
2023-04-17T01:24:18.530Z,45
2023-04-17T01:26:20.323Z,45
2023-04-17T01:28:18.802Z,45.8
2023-04-17T01:30:28.112Z,45.3
2023-04-17T01:32:18.902Z,45.3
2023-04-17T01:34:18.656Z,44.7
2023-04-17T01:36:19.200Z,45.4
2023-04-17T01:38:19.177Z,44.8
2023-04-17T01:40:18.892Z,45.3
2023-04-17T01:42:19.113Z,44.6
2023-04-17T01:44:19.083Z,45.3
2023-04-17T01:46:18.920Z,45.3
2023-04-17T01:48:18.945Z,45.6
2023-04-17T01:50:19.449Z,45.6
2023-04-17T01:52:19.029Z,45.6
2023-04-17T01:54:19.065Z,45.7
2023-04-17T01:56:19.291Z,45.7
2023-04-17T01:58:19.701Z,46.6
2023-04-17T02:00:20.074Z,45.9
2023-04-17T02:02:19.273Z,46.7
2023-04-17T02:04:19.335Z,46.2
2023-04-17T02:06:19.388Z,46.6
2023-04-17T02:08:19.391Z,46.6
2023-04-17T02:10:19.360Z,47.3
2023-04-17T02:12:19.382Z,47.9
2023-04-17T02:14:20.654Z,47.1
2023-04-17T02:16:19.784Z,47.7
2023-04-17T02:18:19.670Z,47.7
2023-04-17T02:20:19.718Z,47.7
2023-04-17T02:22:19.525Z,47.7
2023-04-17T02:24:19.645Z,47.5
2023-04-17T02:26:19.774Z,47.5
2023-04-17T02:28:19.691Z,47.5
2023-04-17T02:30:19.934Z,47.5
2023-04-17T02:32:20.003Z,47.5
2023-04-17T02:34:20.203Z,47.5
2023-04-17T02:36:20.082Z,47
2023-04-17T02:38:19.979Z,47.1
2023-04-17T02:40:22.417Z,47.8
2023-04-17T02:42:20.999Z,47
2023-04-17T02:44:19.980Z,48.4
2023-04-17T02:46:20.167Z,47.3
2023-04-17T02:48:20.128Z,48.1
2023-04-17T02:50:35.146Z,48.1
2023-04-17T02:52:20.336Z,48.1
2023-04-17T02:54:20.327Z,47.8
2023-04-17T02:56:20.244Z,47.8
2023-04-17T02:58:20.893Z,47.8
2023-04-17T03:00:21.053Z,48
2023-04-17T03:02:20.681Z,47.9
2023-04-17T03:04:20.351Z,48.2
2023-04-17T03:06:20.444Z,48.2
2023-04-17T03:08:22.211Z,48.2
2023-04-17T03:10:21.126Z,48.2
2023-04-17T03:12:20.518Z,48.4
2023-04-17T03:14:20.488Z,47.8
2023-04-17T03:16:20.615Z,47.8
2023-04-17T03:18:20.653Z,47.8
2023-04-17T03:20:20.586Z,47.1
2023-04-17T03:22:21.514Z,47.1
2023-04-17T03:24:20.699Z,46.7
2023-04-17T03:26:20.753Z,46.7
2023-04-17T03:28:20.884Z,46.7
2023-04-17T03:30:22.906Z,46.5
2023-04-17T03:32:21.626Z,46.5
2023-04-17T03:34:22.410Z,46.5
2023-04-17T03:36:21.190Z,46.5
2023-04-17T03:38:21.272Z,46.6
2023-04-17T03:40:21.066Z,46.6
2023-04-17T03:42:21.571Z,46.3
2023-04-17T03:44:21.083Z,46.9
2023-04-17T03:46:21.774Z,45.9
2023-04-17T03:48:21.580Z,46.6
2023-04-17T03:50:27.935Z,46.6
2023-04-17T03:52:23.262Z,46.6
2023-04-17T03:54:21.763Z,46
2023-04-17T03:56:21.562Z,45.7
2023-04-17T03:58:22.391Z,45.7
2023-04-17T04:00:25.063Z,46.9
2023-04-17T04:02:22.132Z,46.1
2023-04-17T04:04:23.445Z,45.9
2023-04-17T04:06:22.141Z,45.9
2023-04-17T04:08:24.672Z,44.4
2023-04-17T04:10:22.302Z,45
2023-04-17T04:12:22.386Z,43.9
2023-04-17T04:14:22.314Z,45
2023-04-17T04:16:22.736Z,44.1
2023-04-17T04:18:22.685Z,43.6
2023-04-17T04:20:24.379Z,41
2023-04-17T04:22:25.020Z,39.6
2023-04-17T04:24:22.801Z,42.7
2023-04-17T04:26:25.258Z,40.4
2023-04-17T04:28:23.116Z,41.6
2023-04-17T04:30:24.416Z,42.5
2023-04-17T04:32:23.946Z,43.3
2023-04-17T04:34:24.226Z,45.4
2023-04-17T04:36:32.123Z,44.2
2023-04-17T04:38:23.784Z,43.2
2023-04-17T04:40:24.848Z,44.7
2023-04-17T04:42:28.990Z,45.2
2023-04-17T04:44:24.845Z,45.1
2023-04-17T04:46:24.881Z,44.7
2023-04-17T04:48:24.697Z,45.8
2023-04-17T04:50:24.749Z,46.4
2023-04-17T04:52:27.392Z,43.5
2023-04-17T04:54:28.148Z,43.8
2023-04-17T04:56:25.356Z,43.8
2023-04-17T04:58:25.715Z,44.8
2023-04-17T05:00:28.396Z,44.8
2023-04-17T05:02:26.215Z,46
2023-04-17T05:04:28.618Z,46.7
2023-04-17T05:06:29.541Z,46.3
2023-04-17T05:08:33.667Z,46.1
2023-04-17T05:10:30.450Z,44.8
2023-04-17T05:12:26.529Z,44.2
2023-04-17T05:14:26.541Z,42.9
2023-04-17T05:16:26.756Z,42.4
2023-04-17T05:18:28.722Z,43
2023-04-17T05:20:30.505Z,42.9
2023-04-17T05:22:41.893Z,42
2023-04-17T05:24:27.824Z,41.2
2023-04-17T05:26:27.374Z,41.2
2023-04-17T05:28:29.395Z,41.7
2023-04-17T05:30:35.587Z,41.7
2023-04-17T05:32:31.521Z,41.7
2023-04-17T05:34:28.006Z,41.7
2023-04-17T05:36:28.265Z,42.6
2023-04-17T05:38:28.622Z,42.6
2023-04-17T05:40:28.775Z,42.6
2023-04-17T05:42:29.150Z,41.6
2023-04-17T05:44:28.953Z,41.9
2023-04-17T05:46:28.950Z,40.8
2023-04-17T05:48:29.840Z,40.3
2023-04-17T05:50:29.559Z,40.3
2023-04-17T05:52:29.406Z,41.4
2023-04-17T05:54:29.489Z,39.3
2023-04-17T05:56:30.058Z,39.3
2023-04-17T05:58:31.005Z,38.4
2023-04-17T06:00:31.424Z,38.4
2023-04-17T06:02:30.341Z,38.4
2023-04-17T06:04:30.548Z,38.5
2023-04-17T06:06:31.056Z,39.6
2023-04-17T06:08:30.728Z,39
2023-04-17T06:10:31.028Z,38.4
2023-04-17T06:12:31.437Z,38.4
2023-04-17T06:14:31.917Z,37.8
2023-04-17T06:16:31.573Z,37.8
2023-04-17T06:18:31.754Z,39.1
2023-04-17T06:20:31.812Z,38.4
2023-04-17T06:22:32.593Z,37
2023-04-17T06:24:32.803Z,37
2023-04-17T06:26:32.459Z,37
2023-04-17T06:28:33.011Z,38
2023-04-17T06:30:32.904Z,37.3
2023-04-17T06:32:33.380Z,38.3
2023-04-17T06:34:33.461Z,37.6
2023-04-17T06:36:36.566Z,37
2023-04-17T06:38:33.819Z,37
2023-04-17T06:40:33.985Z,37.6
2023-04-17T06:42:35.016Z,37
2023-04-17T06:44:34.496Z,36.3
2023-04-17T06:46:37.620Z,37
2023-04-17T06:48:34.826Z,37
2023-04-17T06:50:35.330Z,37
2023-04-17T06:52:35.340Z,37
2023-04-17T06:54:35.559Z,37.6
2023-04-17T06:56:35.640Z,39.1
2023-04-17T06:58:35.858Z,39.2
2023-04-17T07:00:36.467Z,38.4
2023-04-17T07:02:36.440Z,38.4
2023-04-17T07:04:36.685Z,38.5
2023-04-17T07:06:37.419Z,37.4
2023-04-17T07:08:37.021Z,36.8
2023-04-17T07:10:37.177Z,36.8
2023-04-17T07:12:37.710Z,37
2023-04-17T07:14:37.720Z,36.6
2023-04-17T07:16:37.992Z,37.7
2023-04-17T07:18:38.173Z,37.7
2023-04-17T07:20:38.578Z,37
2023-04-17T07:22:38.899Z,37
2023-04-17T07:24:38.848Z,37.6
2023-04-17T07:26:39.179Z,37.6
2023-04-17T07:28:39.779Z,38.2
2023-04-17T07:30:40.377Z,36.9
2023-04-17T07:32:39.907Z,37.8
2023-04-17T07:34:40.173Z,36.9
2023-04-17T07:36:40.294Z,37.8
2023-04-17T07:38:41.112Z,37.8
2023-04-17T07:40:40.998Z,38.2
2023-04-17T07:42:41.166Z,37.7
2023-04-17T07:44:41.304Z,37.3
2023-04-17T07:46:41.735Z,37.3
2023-04-17T07:48:41.824Z,37.3
2023-04-17T07:50:42.248Z,38
2023-04-17T07:52:42.402Z,38
2023-04-17T07:54:42.854Z,37.4
2023-04-17T07:56:42.880Z,36.5
2023-04-17T07:58:43.654Z,36.5
2023-04-17T08:00:43.384Z,36.5
2023-04-17T08:02:43.842Z,36.5
2023-04-17T08:04:44.317Z,37.2
2023-04-17T08:06:44.045Z,37.2
2023-04-17T08:08:44.370Z,38
2023-04-17T08:10:44.705Z,38
2023-04-17T08:12:44.895Z,37.5
2023-04-17T08:14:45.127Z,37.8
2023-04-17T08:16:45.444Z,38.1
2023-04-17T08:18:45.730Z,38.1
2023-04-17T08:20:46.082Z,38.7
2023-04-17T08:22:46.485Z,38
2023-04-17T08:24:46.438Z,37.7
2023-04-17T08:26:47.293Z,37.7
2023-04-17T08:28:47.011Z,37.4
2023-04-17T08:30:47.311Z,37.4
2023-04-17T08:32:48.866Z,37.4
2023-04-17T08:34:47.753Z,37
2023-04-17T08:36:47.933Z,37
2023-04-17T08:38:48.101Z,37.8
2023-04-17T08:40:52.332Z,35.7
2023-04-17T08:42:50.874Z,35.1
2023-04-17T08:44:48.955Z,35
2023-04-17T08:46:50.107Z,35
2023-04-17T08:48:51.196Z,35
2023-04-17T08:50:51.331Z,36.3
2023-04-17T08:52:51.575Z,36.3
2023-04-17T08:54:51.494Z,34.5
2023-04-17T08:56:50.637Z,35.6
2023-04-17T08:58:50.848Z,35
2023-04-17T09:00:51.035Z,35.7
2023-04-17T09:02:53.359Z,35.7
2023-04-17T09:04:51.702Z,35.6
2023-04-17T09:06:51.983Z,35.6
2023-04-17T09:08:57.548Z,34.8
2023-04-17T09:10:54.364Z,35.9
2023-04-17T09:12:59.490Z,35
2023-04-17T09:14:53.107Z,33.4
2023-04-17T09:16:53.414Z,34
2023-04-17T09:19:04.787Z,34
2023-04-17T09:20:54.257Z,34.5
2023-04-17T09:23:00.680Z,35
2023-04-17T09:24:55.712Z,34.6
2023-04-17T09:26:54.658Z,35.3
2023-04-17T09:29:04.334Z,33.9
2023-04-17T09:30:55.331Z,32.6
2023-04-17T09:33:04.710Z,31.6
2023-04-17T09:34:58.515Z,31.2
2023-04-17T09:36:56.108Z,34.2
2023-04-17T09:38:56.634Z,34.2
2023-04-17T09:40:56.770Z,34.2
2023-04-17T09:42:58.487Z,34.2
2023-04-17T09:45:12.446Z,33.4
2023-04-17T09:46:59.859Z,33.4
2023-04-17T09:49:01.042Z,32.6
2023-04-17T09:50:58.443Z,32.6
2023-04-17T09:52:58.965Z,32.7
2023-04-17T09:55:00.472Z,33.9
2023-04-17T09:57:00.248Z,34.1
2023-04-17T09:59:02.109Z,33.4
2023-04-17T10:01:00.530Z,32.3
2023-04-17T10:03:02.579Z,33.7
2023-04-17T10:05:01.916Z,33.7
2023-04-17T10:07:01.047Z,34.7
2023-04-17T10:09:01.569Z,33.9
2023-04-17T10:11:05.475Z,32.5
2023-04-17T10:13:04.573Z,33.9
2023-04-17T10:15:03.242Z,33.9
2023-04-17T10:17:22.219Z,33.9
2023-04-17T10:19:26.736Z,34.2
2023-04-17T10:21:19.708Z,32.7
2023-04-17T10:23:26.902Z,32.2
2023-04-17T10:25:21.296Z,33.2
2023-04-17T10:27:37.741Z,32.9
2023-04-17T10:29:04.116Z,32.9
2023-04-17T10:31:04.399Z,32.3
2023-04-17T10:33:20.605Z,32.5
2023-04-17T10:35:39.203Z,33
2023-04-17T10:37:05.274Z,32
2023-04-17T10:39:13.874Z,32.8
2023-04-17T10:41:08.020Z,33.4
2023-04-17T10:43:12.274Z,33.2
2023-04-17T10:45:18.384Z,34
2023-04-17T10:47:07.065Z,32.6
2023-04-17T10:49:07.056Z,34
2023-04-17T10:51:39.592Z,31
2023-04-17T10:53:07.661Z,32.4
2023-04-17T10:55:09.990Z,32.7
2023-04-17T10:57:08.371Z,33.8
2023-04-17T10:59:09.968Z,33.8
2023-04-17T11:01:11.152Z,33.2
2023-04-17T11:03:14.470Z,34.1
2023-04-17T11:05:10.772Z,34.1
2023-04-17T11:07:12.055Z,32.6
2023-04-17T11:09:10.624Z,32.6
2023-04-17T11:11:10.647Z,31.8
2023-04-17T11:13:10.643Z,31.6
2023-04-17T11:15:11.276Z,32.8
2023-04-17T11:17:11.524Z,32
2023-04-17T11:19:16.258Z,32
2023-04-17T11:21:13.197Z,31.5
2023-04-17T11:23:12.211Z,31.8
2023-04-17T11:25:28.066Z,31.7
2023-04-17T11:27:13.017Z,32.3
2023-04-17T11:29:14.721Z,32.3
2023-04-17T11:31:13.464Z,31.7
2023-04-17T11:33:13.673Z,32.5
2023-04-17T11:35:14.124Z,33.4
2023-04-17T11:37:14.822Z,33.4
2023-04-17T11:39:15.120Z,32.9
2023-04-17T11:41:15.113Z,34.1
2023-04-17T11:43:16.018Z,33.1
2023-04-17T11:45:18.822Z,33.1
2023-04-17T11:47:18.855Z,32.2
2023-04-17T11:49:16.609Z,34
2023-04-17T11:51:17.889Z,31.9
2023-04-17T11:53:17.270Z,32.1
2023-04-17T11:55:17.530Z,32.1
2023-04-17T11:57:17.472Z,32.1
2023-04-17T11:59:29.638Z,33.2
2023-04-17T12:01:20.133Z,33.2
2023-04-17T12:03:34.426Z,32.2
2023-04-17T12:05:19.395Z,32.2
2023-04-17T12:07:22.308Z,33.1
2023-04-17T12:09:20.118Z,33.1
2023-04-17T12:11:29.315Z,33.8
2023-04-17T12:13:20.081Z,33.7
2023-04-17T12:15:20.334Z,33.6
2023-04-17T12:17:20.723Z,32.9
2023-04-17T12:19:21.039Z,32.2
2023-04-17T12:21:22.480Z,33.3
2023-04-17T12:23:21.629Z,33
2023-04-17T12:25:21.955Z,33
2023-04-17T12:27:22.273Z,33
2023-04-17T12:29:32.710Z,33
2023-04-17T12:31:22.860Z,33
2023-04-17T12:33:23.245Z,33.4
2023-04-17T12:35:23.548Z,32.9
2023-04-17T12:37:23.827Z,32.9
2023-04-17T12:39:24.167Z,33.5
2023-04-17T12:41:24.665Z,34
2023-04-17T12:43:24.686Z,32.8
2023-04-17T12:45:25.005Z,32.8
2023-04-17T12:47:25.461Z,32.7
2023-04-17T12:49:25.539Z,32
2023-04-17T12:51:26.274Z,32.9
2023-04-17T12:53:26.155Z,32.5
2023-04-17T12:55:26.525Z,32.5
2023-04-17T12:57:27.508Z,31.7
2023-04-17T12:59:27.098Z,31.7
2023-04-17T13:01:27.496Z,33.4
2023-04-17T13:03:27.922Z,31.3
2023-04-17T13:05:28.384Z,30.7
2023-04-17T13:07:28.641Z,30.7
2023-04-17T13:09:28.703Z,31.6
2023-04-17T13:11:28.895Z,32.9
2023-04-17T13:13:29.390Z,33.1
2023-04-17T13:15:30.774Z,33.1
2023-04-17T13:17:30.634Z,33.1
2023-04-17T13:19:31.600Z,34.3
2023-04-17T13:21:30.465Z,33.8
2023-04-17T13:23:30.827Z,33.1
2023-04-17T13:25:32.072Z,33.1
2023-04-17T13:27:31.865Z,34.4
2023-04-17T13:29:31.502Z,33.7
2023-04-17T13:31:32.023Z,34.3
2023-04-17T13:33:32.104Z,34.8
2023-04-17T13:35:32.403Z,34.8
2023-04-17T13:37:32.724Z,35.7
2023-04-17T13:39:32.959Z,34.5
2023-04-17T13:41:33.244Z,35
2023-04-17T13:43:33.395Z,34.6
2023-04-17T13:45:34.144Z,34.1
2023-04-17T13:47:33.979Z,34.8
2023-04-17T13:49:34.251Z,34.8
2023-04-17T13:51:34.664Z,34.2
2023-04-17T13:53:34.760Z,34.9
2023-04-17T13:55:35.191Z,34.9
2023-04-17T13:57:35.702Z,36
2023-04-17T13:59:35.573Z,35.4
2023-04-17T14:01:36.188Z,34.6
2023-04-17T14:03:38.291Z,34.6
2023-04-17T14:05:36.387Z,34.6
2023-04-17T14:07:37.680Z,34.6
2023-04-17T14:09:37.406Z,34.6
2023-04-17T14:11:37.754Z,35.1
2023-04-17T14:13:37.552Z,36.8
2023-04-17T14:15:37.905Z,36.2
2023-04-17T14:17:38.388Z,36.2
2023-04-17T14:19:38.268Z,35.5
2023-04-17T14:21:38.630Z,35
2023-04-17T14:23:38.738Z,35.2
2023-04-17T14:25:39.089Z,35.2
2023-04-17T14:27:39.518Z,35.7
2023-04-17T14:29:39.531Z,35.7
2023-04-17T14:31:39.890Z,36.3
2023-04-17T14:33:40.146Z,36.2
2023-04-17T14:35:40.498Z,36.2
2023-04-17T14:37:40.596Z,35.7
2023-04-17T14:39:40.960Z,35.7
2023-04-17T14:41:41.409Z,36.8
2023-04-17T14:43:41.431Z,36.2
2023-04-17T14:45:41.943Z,36.2
2023-04-17T14:47:41.973Z,36.1
2023-04-17T14:49:42.284Z,36.1
2023-04-17T14:51:42.507Z,37
2023-04-17T14:53:42.694Z,37.6
2023-04-17T14:55:43.005Z,37.6
2023-04-17T14:57:43.447Z,38.7
2023-04-17T14:59:43.605Z,37.8
2023-04-17T15:01:44.066Z,37.8
2023-04-17T15:03:46.778Z,38.4
2023-04-17T15:05:44.273Z,39
2023-04-17T15:07:44.985Z,37.6
2023-04-17T15:09:44.786Z,37.6
2023-04-17T15:11:45.315Z,37.6
2023-04-17T15:13:45.242Z,37.5
2023-04-17T15:15:45.638Z,37.5
2023-04-17T15:17:45.931Z,37.5
2023-04-17T15:19:46.077Z,38.2
2023-04-17T15:21:46.491Z,37.6
2023-04-17T15:23:46.644Z,37.8
2023-04-17T15:25:46.848Z,37.8
2023-04-17T15:27:47.158Z,38.5
2023-04-17T15:29:47.417Z,38.5
2023-04-17T15:31:47.657Z,39
2023-04-17T15:33:47.907Z,38.8
2023-04-17T15:35:53.429Z,38.8
2023-04-17T15:37:48.357Z,38.8
2023-04-17T15:39:48.678Z,39.9
2023-04-17T15:41:48.924Z,39.4
2023-04-17T15:43:49.173Z,39.6
2023-04-17T15:45:50.341Z,40.3
2023-04-17T15:47:49.699Z,40.3
2023-04-17T15:49:49.721Z,40.3
2023-04-17T15:51:50.307Z,40.6
2023-04-17T15:53:50.285Z,40.4
2023-04-17T15:55:51.960Z,41.1
2023-04-17T15:57:50.862Z,40.6
2023-04-17T15:59:51.303Z,41.1
2023-04-17T16:01:51.465Z,42.4
2023-04-17T16:03:52.076Z,42.1
2023-04-17T16:05:53.905Z,41.4
2023-04-17T16:07:51.965Z,41.4
2023-04-17T16:09:52.236Z,41.5
2023-04-17T16:11:52.546Z,42.8
2023-04-17T16:13:52.643Z,41.8
2023-04-17T16:15:53.038Z,41.1
2023-04-17T16:17:53.378Z,41.1
2023-04-17T16:19:53.321Z,41.1
2023-04-17T16:21:53.873Z,43.4
2023-04-17T16:23:54.006Z,42.4
2023-04-17T16:25:54.122Z,42.4
2023-04-17T16:27:54.514Z,41.8
2023-04-17T16:29:54.619Z,42.4
2023-04-17T16:31:55.091Z,42.5
2023-04-17T16:33:55.105Z,42.5
2023-04-17T16:35:56.125Z,41.7
2023-04-17T16:37:55.671Z,42.4
2023-04-17T16:39:55.778Z,42.4
2023-04-17T16:41:55.958Z,44.2
2023-04-17T16:43:56.247Z,42.1
2023-04-17T16:45:56.964Z,42.6
2023-04-17T16:47:56.732Z,42.6
2023-04-17T16:49:56.921Z,42.6
2023-04-17T16:51:57.169Z,42.6
2023-04-17T16:53:57.418Z,42.6
2023-04-17T16:55:57.611Z,42.6
2023-04-17T16:57:58.009Z,42.6
2023-04-17T16:59:58.157Z,44.6
2023-04-17T17:02:00.114Z,42.6
2023-04-17T17:03:58.927Z,45
2023-04-17T17:05:59.047Z,43.5
2023-04-17T17:07:59.132Z,43.5
2023-04-17T17:09:59.320Z,45.6
2023-04-17T17:11:59.925Z,44.1
2023-04-17T17:13:59.753Z,45.6
2023-04-17T17:15:59.993Z,46.5
2023-04-17T17:18:00.337Z,44.6
2023-04-17T17:20:00.375Z,46.4
2023-04-17T17:22:00.646Z,45.2
2023-04-17T17:24:00.968Z,44.9
2023-04-17T17:26:01.058Z,46
2023-04-17T17:28:01.493Z,47.2
2023-04-17T17:30:02.249Z,47.2
2023-04-17T17:32:01.876Z,45.9
2023-04-17T17:34:12.007Z,47.4
2023-04-17T17:36:02.907Z,47.5
2023-04-17T17:38:02.504Z,47.5
2023-04-17T17:40:03.018Z,46.9
2023-04-17T17:42:03.570Z,47.7
2023-04-17T17:44:03.071Z,49
2023-04-17T17:46:03.345Z,49
2023-04-17T17:48:04.116Z,49.1
2023-04-17T17:50:04.467Z,47.4
2023-04-17T17:52:04.400Z,48.2
2023-04-17T17:54:04.228Z,48.4
2023-04-17T17:56:04.991Z,50.6
2023-04-17T17:58:06.488Z,48.9
2023-04-17T18:00:05.877Z,50.5
2023-04-17T18:02:05.197Z,49.5
2023-04-17T18:04:05.645Z,48.9
2023-04-17T18:06:05.562Z,51.1
2023-04-17T18:08:05.754Z,49.4
2023-04-17T18:10:07.029Z,49.4
2023-04-17T18:12:06.503Z,49.4
2023-04-17T18:14:06.360Z,53
2023-04-17T18:16:07.706Z,50.8
2023-04-17T18:18:06.880Z,50.5
2023-04-17T18:20:08.359Z,49.9
2023-04-17T18:22:08.262Z,49.2
2023-04-17T18:24:07.872Z,49.1
2023-04-17T18:26:07.659Z,49.7
2023-04-17T18:28:07.906Z,49.7
2023-04-17T18:30:09.410Z,50.6
2023-04-17T18:32:08.435Z,50.6
2023-04-17T18:34:08.506Z,50
2023-04-17T18:36:08.778Z,50.2
2023-04-17T18:38:09.135Z,49.6
2023-04-17T18:40:09.640Z,49.6
2023-04-17T18:42:09.402Z,49.6
2023-04-17T18:44:09.659Z,50.3
2023-04-17T18:46:09.844Z,50.9
2023-04-17T18:48:10.017Z,51.7
2023-04-17T18:50:10.945Z,50.8
2023-04-17T18:52:10.486Z,50.8
2023-04-17T18:54:10.969Z,50.4
2023-04-17T18:56:12.189Z,50.4
2023-04-17T18:58:11.159Z,52.1
2023-04-17T19:00:12.106Z,52.1
2023-04-17T19:02:11.604Z,51.3
2023-04-17T19:04:12.092Z,52.2
2023-04-17T19:06:12.080Z,52.2
2023-04-17T19:08:12.270Z,52.2
2023-04-17T19:10:12.556Z,52.2
2023-04-17T19:12:12.989Z,52.4
2023-04-17T19:14:13.110Z,53.6
2023-04-17T19:16:13.071Z,53.9
2023-04-17T19:18:13.256Z,53.4
2023-04-17T19:20:13.615Z,52.1
2023-04-17T19:22:15.409Z,53.2
2023-04-17T19:24:13.960Z,52.5
2023-04-17T19:26:14.311Z,51.1
2023-04-17T19:28:14.298Z,52
2023-04-17T19:30:14.669Z,51.2
2023-04-17T19:32:14.742Z,51.8
2023-04-17T19:34:14.998Z,51.3
2023-04-17T19:36:15.280Z,51.3
2023-04-17T19:38:17.118Z,51.3
2023-04-17T19:40:24.112Z,51.9
2023-04-17T19:42:15.804Z,50.8
2023-04-17T19:44:15.996Z,50.3
2023-04-17T19:46:18.013Z,51.5
2023-04-17T19:48:16.545Z,51.5
2023-04-17T19:50:16.769Z,50.4
2023-04-17T19:52:16.984Z,50.4
2023-04-17T19:54:17.203Z,51.7
2023-04-17T19:56:17.382Z,52.3
2023-04-17T19:58:17.518Z,50.4
2023-04-17T20:00:18.197Z,50.3
2023-04-17T20:02:18.445Z,50.3
2023-04-17T20:04:18.352Z,51.9
2023-04-17T20:06:18.866Z,51.9
2023-04-17T20:08:18.643Z,52.3
2023-04-17T20:10:18.867Z,52.3
2023-04-17T20:12:19.034Z,52.7
2023-04-17T20:14:19.183Z,52.1
2023-04-17T20:16:19.669Z,52
2023-04-17T20:18:19.622Z,52.3
2023-04-17T20:20:19.895Z,52.3
2023-04-17T20:22:19.985Z,53
2023-04-17T20:24:20.229Z,53.2
2023-04-17T20:26:20.404Z,53.8
2023-04-17T20:28:20.716Z,54.7
2023-04-17T20:30:21.505Z,54.7
2023-04-17T20:32:22.110Z,55.3
2023-04-17T20:34:21.303Z,55.2
2023-04-17T20:36:21.347Z,55.2
2023-04-17T20:38:21.554Z,55.2
2023-04-17T20:40:22.078Z,55.9
2023-04-17T20:42:21.966Z,55.9
2023-04-17T20:44:22.129Z,55.6
2023-04-17T20:46:22.300Z,55.2
2023-04-17T20:48:22.554Z,55.3
2023-04-17T20:50:22.994Z,55.3
2023-04-17T20:52:23.110Z,54.7
2023-04-17T20:54:23.234Z,54.8
2023-04-17T20:56:23.137Z,54.2
2023-04-17T20:58:23.383Z,54.2
2023-04-17T21:00:23.666Z,54.2
2023-04-17T21:02:23.982Z,53.6
2023-04-17T21:04:23.917Z,53.7
2023-04-17T21:06:24.066Z,53.7
2023-04-17T21:08:24.682Z,53.7
2023-04-17T21:10:24.505Z,54.2
2023-04-17T21:12:24.775Z,54.2
2023-04-17T21:14:24.800Z,54.1
2023-04-17T21:16:24.997Z,54.1
2023-04-17T21:18:25.140Z,54.1
2023-04-17T21:20:25.455Z,54.7
2023-04-17T21:22:25.426Z,55.4
2023-04-17T21:24:25.548Z,55.1
2023-04-17T21:26:25.773Z,54.5
2023-04-17T21:28:25.836Z,54.5
2023-04-17T21:30:27.519Z,55
2023-04-17T21:32:26.313Z,55
2023-04-17T21:34:26.477Z,54.9
2023-04-17T21:36:26.426Z,54.9
2023-04-17T21:38:26.647Z,54.9
2023-04-17T21:40:31.002Z,54.9
2023-04-17T21:42:26.866Z,54.9
2023-04-17T21:44:27.635Z,54.7
2023-04-17T21:46:27.309Z,54.7
2023-04-17T21:48:27.465Z,54.7
2023-04-17T21:50:27.660Z,54.7
2023-04-17T21:52:27.847Z,55.9
2023-04-17T21:54:27.868Z,55
2023-04-17T21:56:28.050Z,55
2023-04-17T21:58:28.243Z,55
2023-04-17T22:00:29.091Z,55
2023-04-17T22:02:28.627Z,55
2023-04-17T22:04:29.023Z,56.3
2023-04-17T22:06:28.940Z,55.4
2023-04-17T22:08:29.071Z,56.8
2023-04-17T22:10:29.421Z,56.3
2023-04-17T22:12:29.837Z,56.3
2023-04-17T22:14:29.522Z,56.8
2023-04-17T22:16:29.740Z,56.8
2023-04-17T22:18:29.826Z,56.8
2023-04-17T22:20:30.043Z,56.8
2023-04-17T22:22:30.079Z,56.8
2023-04-17T22:24:30.273Z,57.4
2023-04-17T22:26:30.717Z,57.4
2023-04-17T22:28:30.840Z,57.4
2023-04-17T22:30:30.893Z,58.5
2023-04-17T22:32:32.883Z,57.8
2023-04-17T22:34:31.022Z,58.4
2023-04-17T22:36:31.265Z,58.4
2023-04-17T22:38:31.381Z,59.3
2023-04-17T22:40:31.474Z,59.7
2023-04-17T22:42:32.253Z,61.3
2023-04-17T22:44:31.800Z,62.4
2023-04-17T22:46:31.970Z,63.4
2023-04-17T22:48:32.052Z,64.5
2023-04-17T22:50:32.399Z,65.9
2023-04-17T22:52:32.289Z,66.3
2023-04-17T22:54:32.761Z,65.2
2023-04-17T22:56:33.626Z,66.1
2023-04-17T22:58:33.358Z,66.1
2023-04-17T23:00:33.193Z,66.1
2023-04-17T23:02:33.023Z,66.7
2023-04-17T23:04:33.217Z,67.3
2023-04-17T23:06:33.209Z,67.3
2023-04-17T23:08:33.359Z,68.2
2023-04-17T23:10:33.597Z,68.7
2023-04-17T23:12:34.179Z,68.7
2023-04-17T23:14:33.705Z,69.5
2023-04-17T23:16:33.895Z,69.5
2023-04-17T23:18:34.024Z,70.5
2023-04-17T23:20:34.171Z,69.3
2023-04-17T23:22:34.583Z,70.2
2023-04-17T23:24:34.841Z,69.2
2023-04-17T23:26:34.461Z,69.2
2023-04-17T23:28:34.578Z,71.3
2023-04-17T23:30:34.960Z,70.4
2023-04-17T23:32:34.881Z,71
2023-04-17T23:34:35.276Z,69.8
2023-04-17T23:36:35.135Z,70.4
2023-04-17T23:38:35.128Z,70.9
2023-04-17T23:40:35.248Z,72
2023-04-17T23:42:35.355Z,73
2023-04-17T23:44:35.430Z,72.3
2023-04-17T23:46:35.644Z,71.2
2023-04-17T23:48:35.734Z,72.7
2023-04-17T23:50:35.792Z,71.4
2023-04-17T23:52:35.955Z,72.8
2023-04-17T23:54:36.044Z,71.5
2023-04-17T23:56:36.153Z,70.9
2023-04-17T23:58:36.262Z,72.2
